sensor_id;sensor_type;location;lat;lon;timestamp;temperature;humidity
27823;DHT22;29019;47.630;8.262;2023-02-07T00:00:12;18.70;33.70
27823;DHT22;29019;47.630;8.262;2023-02-07T00:04:13;18.70;33.70
27823;DHT22;29019;47.630;8.262;2023-02-07T00:08:13;18.60;33.70
27823;DHT22;29019;47.630;8.262;2023-02-07T00:12:15;18.60;33.70
27823;DHT22;29019;47.630;8.262;2023-02-07T00:16:15;18.60;33.70
27823;DHT22;29019;47.630;8.262;2023-02-07T00:20:16;18.60;33.80
27823;DHT22;29019;47.630;8.262;2023-02-07T00:24:17;18.60;33.80
27823;DHT22;29019;47.630;8.262;2023-02-07T00:28:17;18.50;33.80
27823;DHT22;29019;47.630;8.262;2023-02-07T00:32:18;18.50;33.80
27823;DHT22;29019;47.630;8.262;2023-02-07T00:36:21;18.50;33.80
27823;DHT22;29019;47.630;8.262;2023-02-07T00:40:21;18.40;33.80
27823;DHT22;29019;47.630;8.262;2023-02-07T00:44:23;18.40;33.70
27823;DHT22;29019;47.630;8.262;2023-02-07T00:48:23;18.40;33.80
27823;DHT22;29019;47.630;8.262;2023-02-07T00:52:24;18.40;33.80
27823;DHT22;29019;47.630;8.262;2023-02-07T00:56:25;18.40;33.80
27823;DHT22;29019;47.630;8.262;2023-02-07T01:00:26;18.30;33.80
27823;DHT22;29019;47.630;8.262;2023-02-07T01:04:26;18.40;33.80
27823;DHT22;29019;47.630;8.262;2023-02-07T01:08:26;18.30;33.80
27823;DHT22;29019;47.630;8.262;2023-02-07T01:12:27;18.30;33.80
27823;DHT22;29019;47.630;8.262;2023-02-07T01:16:32;18.30;33.90
27823;DHT22;29019;47.630;8.262;2023-02-07T01:20:32;18.30;33.90
27823;DHT22;29019;47.630;8.262;2023-02-07T01:24:33;18.20;33.80
27823;DHT22;29019;47.630;8.262;2023-02-07T01:28:34;18.20;33.80
27823;DHT22;29019;47.630;8.262;2023-02-07T01:32:34;18.20;33.80
27823;DHT22;29019;47.630;8.262;2023-02-07T01:36:35;18.20;33.80
27823;DHT22;29019;47.630;8.262;2023-02-07T01:40:36;18.20;33.80
27823;DHT22;29019;47.630;8.262;2023-02-07T01:48:37;18.10;33.80
27823;DHT22;29019;47.630;8.262;2023-02-07T01:52:38;18.10;33.80
27823;DHT22;29019;47.630;8.262;2023-02-07T01:56:43;18.10;33.80
27823;DHT22;29019;47.630;8.262;2023-02-07T02:00:44;18.10;33.80
27823;DHT22;29019;47.630;8.262;2023-02-07T02:04:45;18.10;33.80
27823;DHT22;29019;47.630;8.262;2023-02-07T02:08:46;18.00;33.80
27823;DHT22;29019;47.630;8.262;2023-02-07T02:17:10;18.00;33.80
27823;DHT22;29019;47.630;8.262;2023-02-07T02:25:26;18.00;33.80
27823;DHT22;29019;47.630;8.262;2023-02-07T02:33:59;17.90;33.70
27823;DHT22;29019;47.630;8.262;2023-02-07T02:38:18;17.90;33.80
27823;DHT22;29019;47.630;8.262;2023-02-07T02:42:30;17.90;33.80
27823;DHT22;29019;47.630;8.262;2023-02-07T02:46:33;17.90;33.70
27823;DHT22;29019;47.630;8.262;2023-02-07T02:50:34;17.90;33.80
27823;DHT22;29019;47.630;8.262;2023-02-07T02:54:36;17.90;33.80
27823;DHT22;29019;47.630;8.262;2023-02-07T03:02:57;17.80;33.80
27823;DHT22;29019;47.630;8.262;2023-02-07T03:07:02;17.80;33.70
27823;DHT22;29019;47.630;8.262;2023-02-07T03:15:14;17.80;33.80
27823;DHT22;29019;47.630;8.262;2023-02-07T03:19:22;17.80;33.80
27823;DHT22;29019;47.630;8.262;2023-02-07T03:23:23;17.80;33.80
27823;DHT22;29019;47.630;8.262;2023-02-07T03:27:24;17.80;33.80
27823;DHT22;29019;47.630;8.262;2023-02-07T03:31:26;17.80;33.70
27823;DHT22;29019;47.630;8.262;2023-02-07T03:35:32;17.80;33.70
27823;DHT22;29019;47.630;8.262;2023-02-07T03:39:34;17.80;33.70
27823;DHT22;29019;47.630;8.262;2023-02-07T03:43:35;17.70;33.60
27823;DHT22;29019;47.630;8.262;2023-02-07T03:47:36;17.80;33.60
27823;DHT22;29019;47.630;8.262;2023-02-07T03:51:36;17.70;33.60
27823;DHT22;29019;47.630;8.262;2023-02-07T03:55:37;17.70;33.60
27823;DHT22;29019;47.630;8.262;2023-02-07T03:59:37;17.80;33.60
27823;DHT22;29019;47.630;8.262;2023-02-07T04:03:38;17.70;33.60
27823;DHT22;29019;47.630;8.262;2023-02-07T04:07:38;17.70;33.60
27823;DHT22;29019;47.630;8.262;2023-02-07T04:11:38;17.70;33.60
27823;DHT22;29019;47.630;8.262;2023-02-07T04:15:39;17.80;33.60
27823;DHT22;29019;47.630;8.262;2023-02-07T04:19:39;17.70;33.60
27823;DHT22;29019;47.630;8.262;2023-02-07T04:23:40;17.80;33.60
27823;DHT22;29019;47.630;8.262;2023-02-07T04:27:40;17.70;33.60
27823;DHT22;29019;47.630;8.262;2023-02-07T04:31:41;17.70;33.50
27823;DHT22;29019;47.630;8.262;2023-02-07T04:35:41;17.70;33.60
27823;DHT22;29019;47.630;8.262;2023-02-07T04:39:42;17.70;33.60
27823;DHT22;29019;47.630;8.262;2023-02-07T04:43:42;17.70;33.50
27823;DHT22;29019;47.630;8.262;2023-02-07T04:47:43;17.70;33.40
27823;DHT22;29019;47.630;8.262;2023-02-07T04:51:43;17.70;33.50
27823;DHT22;29019;47.630;8.262;2023-02-07T04:55:47;17.70;33.50
27823;DHT22;29019;47.630;8.262;2023-02-07T04:59:47;17.70;33.60
27823;DHT22;29019;47.630;8.262;2023-02-07T05:03:48;17.60;33.60
27823;DHT22;29019;47.630;8.262;2023-02-07T05:07:48;17.60;33.50
27823;DHT22;29019;47.630;8.262;2023-02-07T05:11:49;17.60;33.60
27823;DHT22;29019;47.630;8.262;2023-02-07T05:15:49;17.70;34.10
27823;DHT22;29019;47.630;8.262;2023-02-07T05:19:50;17.80;33.60
27823;DHT22;29019;47.630;8.262;2023-02-07T05:23:51;17.90;33.40
27823;DHT22;29019;47.630;8.262;2023-02-07T05:27:51;18.00;33.30
27823;DHT22;29019;47.630;8.262;2023-02-07T05:31:52;18.00;33.20
27823;DHT22;29019;47.630;8.262;2023-02-07T05:36:11;18.10;33.70
27823;DHT22;29019;47.630;8.262;2023-02-07T05:40:11;18.20;33.10
27823;DHT22;29019;47.630;8.262;2023-02-07T05:44:12;18.20;33.00
27823;DHT22;29019;47.630;8.262;2023-02-07T05:48:12;18.20;33.00
27823;DHT22;29019;47.630;8.262;2023-02-07T05:52:13;18.30;32.90
27823;DHT22;29019;47.630;8.262;2023-02-07T05:56:13;18.30;32.90
27823;DHT22;29019;47.630;8.262;2023-02-07T06:00:16;18.40;32.80
27823;DHT22;29019;47.630;8.262;2023-02-07T06:04:16;18.40;32.80
27823;DHT22;29019;47.630;8.262;2023-02-07T06:08:17;18.50;32.80
27823;DHT22;29019;47.630;8.262;2023-02-07T06:12:17;18.50;32.80
27823;DHT22;29019;47.630;8.262;2023-02-07T06:16:18;18.50;32.70
27823;DHT22;29019;47.630;8.262;2023-02-07T06:20:18;18.60;32.70
27823;DHT22;29019;47.630;8.262;2023-02-07T06:24:19;18.60;32.70
27823;DHT22;29019;47.630;8.262;2023-02-07T06:28:21;18.60;32.70
27823;DHT22;29019;47.630;8.262;2023-02-07T06:32:21;18.60;32.60
27823;DHT22;29019;47.630;8.262;2023-02-07T06:36:22;18.70;32.70
27823;DHT22;29019;47.630;8.262;2023-02-07T06:40:22;18.70;32.60
27823;DHT22;29019;47.630;8.262;2023-02-07T06:44:23;18.70;32.60
27823;DHT22;29019;47.630;8.262;2023-02-07T06:48:23;18.80;32.60
27823;DHT22;29019;47.630;8.262;2023-02-07T06:52:24;18.80;32.50
27823;DHT22;29019;47.630;8.262;2023-02-07T06:56:24;18.80;32.60
27823;DHT22;29019;47.630;8.262;2023-02-07T07:00:24;18.80;32.50
27823;DHT22;29019;47.630;8.262;2023-02-07T07:04:25;18.80;32.50
27823;DHT22;29019;47.630;8.262;2023-02-07T07:08:26;18.80;32.50
27823;DHT22;29019;47.630;8.262;2023-02-07T07:12:26;18.90;32.50
27823;DHT22;29019;47.630;8.262;2023-02-07T07:16:27;18.90;32.40
27823;DHT22;29019;47.630;8.262;2023-02-07T07:20:27;18.90;32.40
27823;DHT22;29019;47.630;8.262;2023-02-07T07:24:28;18.90;32.40
27823;DHT22;29019;47.630;8.262;2023-02-07T07:28:29;18.90;32.30
27823;DHT22;29019;47.630;8.262;2023-02-07T07:32:29;19.00;32.40
27823;DHT22;29019;47.630;8.262;2023-02-07T07:36:31;18.90;32.90
27823;DHT22;29019;47.630;8.262;2023-02-07T07:40:31;19.00;32.40
27823;DHT22;29019;47.630;8.262;2023-02-07T07:44:32;19.00;32.30
27823;DHT22;29019;47.630;8.262;2023-02-07T07:48:32;19.00;32.30
27823;DHT22;29019;47.630;8.262;2023-02-07T07:52:33;19.00;32.30
27823;DHT22;29019;47.630;8.262;2023-02-07T07:56:34;19.10;32.30
27823;DHT22;29019;47.630;8.262;2023-02-07T08:00:34;19.10;32.20
27823;DHT22;29019;47.630;8.262;2023-02-07T08:04:35;19.10;32.20
27823;DHT22;29019;47.630;8.262;2023-02-07T08:08:35;19.10;32.10
27823;DHT22;29019;47.630;8.262;2023-02-07T08:12:35;19.10;32.10
27823;DHT22;29019;47.630;8.262;2023-02-07T08:16:36;19.20;32.10
27823;DHT22;29019;47.630;8.262;2023-02-07T08:20:36;19.10;32.00
27823;DHT22;29019;47.630;8.262;2023-02-07T08:24:37;19.10;32.10
27823;DHT22;29019;47.630;8.262;2023-02-07T08:28:37;19.10;32.00
27823;DHT22;29019;47.630;8.262;2023-02-07T08:32:38;19.10;32.00
27823;DHT22;29019;47.630;8.262;2023-02-07T08:36:39;19.00;32.00
27823;DHT22;29019;47.630;8.262;2023-02-07T08:40:39;19.00;32.10
27823;DHT22;29019;47.630;8.262;2023-02-07T08:44:40;18.90;32.10
27823;DHT22;29019;47.630;8.262;2023-02-07T08:48:40;18.90;32.10
27823;DHT22;29019;47.630;8.262;2023-02-07T08:52:41;18.90;32.10
27823;DHT22;29019;47.630;8.262;2023-02-07T08:56:41;18.90;32.10
27823;DHT22;29019;47.630;8.262;2023-02-07T09:00:42;18.80;32.00
27823;DHT22;29019;47.630;8.262;2023-02-07T09:04:43;18.80;32.10
27823;DHT22;29019;47.630;8.262;2023-02-07T09:08:43;18.80;32.20
27823;DHT22;29019;47.630;8.262;2023-02-07T09:12:43;18.80;32.20
27823;DHT22;29019;47.630;8.262;2023-02-07T09:16:44;18.70;32.30
27823;DHT22;29019;47.630;8.262;2023-02-07T09:20:45;18.70;32.30
27823;DHT22;29019;47.630;8.262;2023-02-07T09:24:45;18.60;32.30
27823;DHT22;29019;47.630;8.262;2023-02-07T09:28:46;18.60;32.30
27823;DHT22;29019;47.630;8.262;2023-02-07T09:32:46;18.60;32.40
27823;DHT22;29019;47.630;8.262;2023-02-07T09:36:47;18.60;32.40
27823;DHT22;29019;47.630;8.262;2023-02-07T09:40:49;18.50;32.40
27823;DHT22;29019;47.630;8.262;2023-02-07T09:44:58;18.50;32.30
27823;DHT22;29019;47.630;8.262;2023-02-07T09:57:06;18.50;32.50
27823;DHT22;29019;47.630;8.262;2023-02-07T10:05:15;18.50;32.50
27823;DHT22;29019;47.630;8.262;2023-02-07T10:09:17;18.40;32.50
27823;DHT22;29019;47.630;8.262;2023-02-07T10:13:27;18.40;32.50
27823;DHT22;29019;47.630;8.262;2023-02-07T10:17:47;18.40;33.00
27823;DHT22;29019;47.630;8.262;2023-02-07T10:21:54;18.40;32.50
27823;DHT22;29019;47.630;8.262;2023-02-07T10:30:03;18.40;32.50
27823;DHT22;29019;47.630;8.262;2023-02-07T10:34:11;18.40;33.10
27823;DHT22;29019;47.630;8.262;2023-02-07T10:38:24;18.40;32.60
27823;DHT22;29019;47.630;8.262;2023-02-07T10:42:27;18.40;32.50
27823;DHT22;29019;47.630;8.262;2023-02-07T10:46:28;18.40;32.60
27823;DHT22;29019;47.630;8.262;2023-02-07T10:50:29;18.30;32.60
27823;DHT22;29019;47.630;8.262;2023-02-07T10:54:29;18.30;32.60
27823;DHT22;29019;47.630;8.262;2023-02-07T10:58:47;18.30;32.60
27823;DHT22;29019;47.630;8.262;2023-02-07T11:02:49;18.30;32.60
27823;DHT22;29019;47.630;8.262;2023-02-07T11:06:58;18.30;32.60
27823;DHT22;29019;47.630;8.262;2023-02-07T11:11:15;18.30;32.60
27823;DHT22;29019;47.630;8.262;2023-02-07T11:15:20;18.30;32.60
27823;DHT22;29019;47.630;8.262;2023-02-07T11:19:23;18.30;32.60
27823;DHT22;29019;47.630;8.262;2023-02-07T11:23:24;18.30;32.60
27823;DHT22;29019;47.630;8.262;2023-02-07T11:27:25;18.30;32.70
27823;DHT22;29019;47.630;8.262;2023-02-07T11:31:28;18.20;32.60
27823;DHT22;29019;47.630;8.262;2023-02-07T11:35:29;18.20;32.70
27823;DHT22;29019;47.630;8.262;2023-02-07T11:39:29;18.20;32.70
27823;DHT22;29019;47.630;8.262;2023-02-07T11:43:29;18.20;32.70
27823;DHT22;29019;47.630;8.262;2023-02-07T11:47:31;18.30;32.70
27823;DHT22;29019;47.630;8.262;2023-02-07T11:51:33;18.20;32.70
27823;DHT22;29019;47.630;8.262;2023-02-07T11:55:36;18.20;32.80
27823;DHT22;29019;47.630;8.262;2023-02-07T11:59:49;18.20;32.80
27823;DHT22;29019;47.630;8.262;2023-02-07T12:03:54;18.20;32.80
27823;DHT22;29019;47.630;8.262;2023-02-07T12:08:01;18.20;32.80
27823;DHT22;29019;47.630;8.262;2023-02-07T12:12:04;18.20;32.80
27823;DHT22;29019;47.630;8.262;2023-02-07T12:16:11;18.20;32.80
27823;DHT22;29019;47.630;8.262;2023-02-07T12:20:18;18.20;32.80
27823;DHT22;29019;47.630;8.262;2023-02-07T12:28:25;18.20;32.80
27823;DHT22;29019;47.630;8.262;2023-02-07T12:36:38;18.20;32.80
27823;DHT22;29019;47.630;8.262;2023-02-07T12:44:48;18.20;32.90
27823;DHT22;29019;47.630;8.262;2023-02-07T12:57:14;18.20;32.80
27823;DHT22;29019;47.630;8.262;2023-02-07T13:02:00;18.20;32.80
27823;DHT22;29019;47.630;8.262;2023-02-07T13:14:30;18.10;32.90
27823;DHT22;29019;47.630;8.262;2023-02-07T13:18:49;18.10;32.90
27823;DHT22;29019;47.630;8.262;2023-02-07T13:23:01;18.10;32.90
27823;DHT22;29019;47.630;8.262;2023-02-07T13:27:04;18.10;32.90
27823;DHT22;29019;47.630;8.262;2023-02-07T13:31:07;18.10;32.90
27823;DHT22;29019;47.630;8.262;2023-02-07T13:35:15;18.10;32.90
27823;DHT22;29019;47.630;8.262;2023-02-07T13:51:45;18.10;32.90
27823;DHT22;29019;47.630;8.262;2023-02-07T13:55:49;18.10;32.90
27823;DHT22;29019;47.630;8.262;2023-02-07T14:04:10;18.10;32.90
27823;DHT22;29019;47.630;8.262;2023-02-07T14:12:18;18.10;32.90
27823;DHT22;29019;47.630;8.262;2023-02-07T14:16:42;18.10;33.00
27823;DHT22;29019;47.630;8.262;2023-02-07T14:25:12;18.10;32.90
27823;DHT22;29019;47.630;8.262;2023-02-07T14:33:20;18.10;32.90
27823;DHT22;29019;47.630;8.262;2023-02-07T14:37:33;18.10;32.90
27823;DHT22;29019;47.630;8.262;2023-02-07T14:41:36;18.10;32.90
27823;DHT22;29019;47.630;8.262;2023-02-07T14:45:38;18.10;32.90
27823;DHT22;29019;47.630;8.262;2023-02-07T14:49:44;18.10;32.90
27823;DHT22;29019;47.630;8.262;2023-02-07T14:53:47;18.00;32.90
27823;DHT22;29019;47.630;8.262;2023-02-07T14:57:50;18.00;33.40
27823;DHT22;29019;47.630;8.262;2023-02-07T15:01:53;18.00;32.90
27823;DHT22;29019;47.630;8.262;2023-02-07T15:05:57;18.00;32.90
27823;DHT22;29019;47.630;8.262;2023-02-07T15:09:58;18.00;33.00
27823;DHT22;29019;47.630;8.262;2023-02-07T15:13:59;18.00;33.00
27823;DHT22;29019;47.630;8.262;2023-02-07T15:18:01;18.00;33.00
27823;DHT22;29019;47.630;8.262;2023-02-07T15:22:02;18.00;33.00
27823;DHT22;29019;47.630;8.262;2023-02-07T15:26:04;18.00;33.00
27823;DHT22;29019;47.630;8.262;2023-02-07T15:30:06;18.00;32.90
27823;DHT22;29019;47.630;8.262;2023-02-07T15:34:11;18.00;33.00
27823;DHT22;29019;47.630;8.262;2023-02-07T15:38:18;18.00;33.00
27823;DHT22;29019;47.630;8.262;2023-02-07T15:42:19;18.00;33.00
27823;DHT22;29019;47.630;8.262;2023-02-07T15:46:20;18.00;33.00
27823;DHT22;29019;47.630;8.262;2023-02-07T15:50:22;18.00;33.00
27823;DHT22;29019;47.630;8.262;2023-02-07T15:54:23;17.90;33.00
27823;DHT22;29019;47.630;8.262;2023-02-07T15:58:31;17.90;33.00
27823;DHT22;29019;47.630;8.262;2023-02-07T16:02:35;17.90;33.10
27823;DHT22;29019;47.630;8.262;2023-02-07T16:06:36;17.90;33.10
27823;DHT22;29019;47.630;8.262;2023-02-07T16:10:37;17.90;33.10
27823;DHT22;29019;47.630;8.262;2023-02-07T16:14:39;18.00;33.00
27823;DHT22;29019;47.630;8.262;2023-02-07T16:18:41;18.10;33.00
27823;DHT22;29019;47.630;8.262;2023-02-07T16:22:42;18.20;32.80
27823;DHT22;29019;47.630;8.262;2023-02-07T16:26:43;18.40;32.70
27823;DHT22;29019;47.630;8.262;2023-02-07T16:30:44;18.50;32.60
27823;DHT22;29019;47.630;8.262;2023-02-07T16:34:45;18.60;32.60
27823;DHT22;29019;47.630;8.262;2023-02-07T16:38:45;18.70;32.50
27823;DHT22;29019;47.630;8.262;2023-02-07T16:42:46;18.70;32.40
27823;DHT22;29019;47.630;8.262;2023-02-07T16:46:47;18.80;32.40
27823;DHT22;29019;47.630;8.262;2023-02-07T16:50:47;18.90;32.30
27823;DHT22;29019;47.630;8.262;2023-02-07T16:54:48;18.90;32.30
27823;DHT22;29019;47.630;8.262;2023-02-07T16:58:48;19.00;32.20
27823;DHT22;29019;47.630;8.262;2023-02-07T17:02:49;19.10;32.20
27823;DHT22;29019;47.630;8.262;2023-02-07T17:06:50;19.10;32.10
27823;DHT22;29019;47.630;8.262;2023-02-07T17:10:51;19.20;32.10
27823;DHT22;29019;47.630;8.262;2023-02-07T17:14:53;19.30;32.20
27823;DHT22;29019;47.630;8.262;2023-02-07T17:18:53;19.20;32.00
27823;DHT22;29019;47.630;8.262;2023-02-07T17:22:54;19.30;32.00
27823;DHT22;29019;47.630;8.262;2023-02-07T17:26:54;19.30;32.00
27823;DHT22;29019;47.630;8.262;2023-02-07T17:30:55;19.40;32.00
27823;DHT22;29019;47.630;8.262;2023-02-07T17:34:56;19.40;32.00
27823;DHT22;29019;47.630;8.262;2023-02-07T17:38:56;19.50;32.00
27823;DHT22;29019;47.630;8.262;2023-02-07T17:42:58;19.50;32.00
27823;DHT22;29019;47.630;8.262;2023-02-07T17:46:58;19.50;31.90
27823;DHT22;29019;47.630;8.262;2023-02-07T17:50:59;19.50;32.00
27823;DHT22;29019;47.630;8.262;2023-02-07T17:54:59;19.60;32.00
27823;DHT22;29019;47.630;8.262;2023-02-07T17:59:01;19.60;31.90
27823;DHT22;29019;47.630;8.262;2023-02-07T18:03:02;19.60;31.90
27823;DHT22;29019;47.630;8.262;2023-02-07T18:07:03;19.60;32.00
27823;DHT22;29019;47.630;8.262;2023-02-07T18:11:03;19.70;31.90
27823;DHT22;29019;47.630;8.262;2023-02-07T18:15:06;19.70;31.90
27823;DHT22;29019;47.630;8.262;2023-02-07T18:19:09;19.70;32.40
27823;DHT22;29019;47.630;8.262;2023-02-07T18:23:10;19.70;31.90
27823;DHT22;29019;47.630;8.262;2023-02-07T18:27:12;19.70;31.90
27823;DHT22;29019;47.630;8.262;2023-02-07T18:31:17;19.70;31.90
27823;DHT22;29019;47.630;8.262;2023-02-07T18:35:18;19.80;31.90
27823;DHT22;29019;47.630;8.262;2023-02-07T18:39:19;19.80;31.90
27823;DHT22;29019;47.630;8.262;2023-02-07T18:43:19;19.80;31.90
27823;DHT22;29019;47.630;8.262;2023-02-07T18:47:19;19.80;31.80
27823;DHT22;29019;47.630;8.262;2023-02-07T18:51:20;19.80;31.80
27823;DHT22;29019;47.630;8.262;2023-02-07T18:55:21;19.90;31.80
27823;DHT22;29019;47.630;8.262;2023-02-07T18:59:22;19.90;31.80
27823;DHT22;29019;47.630;8.262;2023-02-07T19:03:23;19.90;31.70
27823;DHT22;29019;47.630;8.262;2023-02-07T19:07:23;19.90;31.80
27823;DHT22;29019;47.630;8.262;2023-02-07T19:11:24;19.90;31.70
27823;DHT22;29019;47.630;8.262;2023-02-07T19:15:25;19.90;31.70
27823;DHT22;29019;47.630;8.262;2023-02-07T19:19:26;19.90;31.60
27823;DHT22;29019;47.630;8.262;2023-02-07T19:23:27;20.00;31.70
27823;DHT22;29019;47.630;8.262;2023-02-07T19:27:28;20.00;31.60
27823;DHT22;29019;47.630;8.262;2023-02-07T19:31:28;20.00;31.60
27823;DHT22;29019;47.630;8.262;2023-02-07T19:35:29;20.00;31.60
27823;DHT22;29019;47.630;8.262;2023-02-07T19:39:29;20.00;31.60
27823;DHT22;29019;47.630;8.262;2023-02-07T19:43:30;20.00;31.60
27823;DHT22;29019;47.630;8.262;2023-02-07T19:47:30;20.10;31.60
27823;DHT22;29019;47.630;8.262;2023-02-07T19:51:31;20.10;31.60
27823;DHT22;29019;47.630;8.262;2023-02-07T19:55:32;20.10;31.60
27823;DHT22;29019;47.630;8.262;2023-02-07T19:59:32;20.10;31.50
27823;DHT22;29019;47.630;8.262;2023-02-07T20:03:33;20.10;31.50
27823;DHT22;29019;47.630;8.262;2023-02-07T20:07:33;20.10;31.40
27823;DHT22;29019;47.630;8.262;2023-02-07T20:11:34;20.10;31.50
27823;DHT22;29019;47.630;8.262;2023-02-07T20:15:37;20.10;31.40
27823;DHT22;29019;47.630;8.262;2023-02-07T20:19:38;20.20;31.40
27823;DHT22;29019;47.630;8.262;2023-02-07T20:23:39;20.20;31.40
27823;DHT22;29019;47.630;8.262;2023-02-07T20:27:41;20.20;31.30
27823;DHT22;29019;47.630;8.262;2023-02-07T20:31:42;20.20;31.30
27823;DHT22;29019;47.630;8.262;2023-02-07T20:35:42;20.20;31.20
27823;DHT22;29019;47.630;8.262;2023-02-07T20:39:43;20.20;31.30
27823;DHT22;29019;47.630;8.262;2023-02-07T20:43:43;20.20;31.20
27823;DHT22;29019;47.630;8.262;2023-02-07T20:47:44;20.20;31.30
27823;DHT22;29019;47.630;8.262;2023-02-07T20:51:45;20.20;31.30
27823;DHT22;29019;47.630;8.262;2023-02-07T20:55:47;20.20;31.30
27823;DHT22;29019;47.630;8.262;2023-02-07T20:59:48;20.10;31.20
27823;DHT22;29019;47.630;8.262;2023-02-07T21:03:49;20.10;31.30
27823;DHT22;29019;47.630;8.262;2023-02-07T21:07:50;20.10;31.30
27823;DHT22;29019;47.630;8.262;2023-02-07T21:11:50;20.10;31.30
27823;DHT22;29019;47.630;8.262;2023-02-07T21:15:52;20.00;31.30
27823;DHT22;29019;47.630;8.262;2023-02-07T21:19:52;20.00;31.30
27823;DHT22;29019;47.630;8.262;2023-02-07T21:23:52;20.00;31.30
27823;DHT22;29019;47.630;8.262;2023-02-07T21:27:53;20.00;31.30
27823;DHT22;29019;47.630;8.262;2023-02-07T21:31:53;20.00;31.30
27823;DHT22;29019;47.630;8.262;2023-02-07T21:36:02;19.90;31.20
27823;DHT22;29019;47.630;8.262;2023-02-07T21:40:02;19.90;31.20
27823;DHT22;29019;47.630;8.262;2023-02-07T21:44:03;19.90;31.20
27823;DHT22;29019;47.630;8.262;2023-02-07T21:48:04;19.80;31.20
27823;DHT22;29019;47.630;8.262;2023-02-07T21:52:04;19.90;31.30
27823;DHT22;29019;47.630;8.262;2023-02-07T21:56:06;19.80;31.40
27823;DHT22;29019;47.630;8.262;2023-02-07T22:00:07;19.80;31.40
27823;DHT22;29019;47.630;8.262;2023-02-07T22:04:11;19.80;31.40
27823;DHT22;29019;47.630;8.262;2023-02-07T22:08:11;19.80;31.40
27823;DHT22;29019;47.630;8.262;2023-02-07T22:12:12;19.80;31.30
27823;DHT22;29019;47.630;8.262;2023-02-07T22:16:13;19.80;31.30
27823;DHT22;29019;47.630;8.262;2023-02-07T22:20:14;19.70;31.30
27823;DHT22;29019;47.630;8.262;2023-02-07T22:24:15;19.70;31.20
27823;DHT22;29019;47.630;8.262;2023-02-07T22:28:16;19.70;31.20
27823;DHT22;29019;47.630;8.262;2023-02-07T22:32:16;19.70;31.20
27823;DHT22;29019;47.630;8.262;2023-02-07T22:36:23;19.70;31.30
27823;DHT22;29019;47.630;8.262;2023-02-07T22:40:23;19.60;31.40
27823;DHT22;29019;47.630;8.262;2023-02-07T22:44:24;19.50;31.50
27823;DHT22;29019;47.630;8.262;2023-02-07T22:48:24;19.50;31.50
27823;DHT22;29019;47.630;8.262;2023-02-07T22:52:25;19.40;31.60
27823;DHT22;29019;47.630;8.262;2023-02-07T22:56:26;19.40;31.70
27823;DHT22;29019;47.630;8.262;2023-02-07T23:00:26;19.30;31.80
27823;DHT22;29019;47.630;8.262;2023-02-07T23:04:27;19.30;32.00
27823;DHT22;29019;47.630;8.262;2023-02-07T23:08:27;19.30;32.00
27823;DHT22;29019;47.630;8.262;2023-02-07T23:12:28;19.20;31.90
27823;DHT22;29019;47.630;8.262;2023-02-07T23:16:29;19.20;32.00
27823;DHT22;29019;47.630;8.262;2023-02-07T23:20:29;19.10;32.00
27823;DHT22;29019;47.630;8.262;2023-02-07T23:24:30;19.10;32.00
27823;DHT22;29019;47.630;8.262;2023-02-07T23:28:30;19.00;32.00
27823;DHT22;29019;47.630;8.262;2023-02-07T23:32:31;19.00;32.10
27823;DHT22;29019;47.630;8.262;2023-02-07T23:36:31;19.00;32.20
27823;DHT22;29019;47.630;8.262;2023-02-07T23:40:31;18.90;32.20
27823;DHT22;29019;47.630;8.262;2023-02-07T23:44:32;18.90;32.20
27823;DHT22;29019;47.630;8.262;2023-02-07T23:48:33;18.90;32.30
27823;DHT22;29019;47.630;8.262;2023-02-07T23:52:34;18.80;32.30
27823;DHT22;29019;47.630;8.262;2023-02-07T23:56:35;18.80;32.30
